CheckWX is a tool to help pilots better visualize weather data.  It is not intended as a substitute for an official pre-flight weather briefing.

18:38:23 UTC

KPEA METAR
Pella Municipal Airport
Pella, Iowa, USA
Current

23 mins ago

KPEA 221815Z AUTO 10005KT 10SM CLR M02/M09 A3034 RMK AO2 T10171095
Observed
Feb-22 @ 18:15 UTC
Wind
  • 100° at 5 KTS
Visibility
10 SM
Flight Rules
VFR
Cloud Levels
  • Clear skies
Temperature
-2°C / 28°F
Dewpoint
-10°C / 14°F
Humidity
55%
Altimeter
30.34" Hg
Pressure
1027.42 hPa
Previous

43 mins ago

KPEA 221755Z AUTO 11006KT 10SM CLR M02/M10 A3036 RMK AO2 T10221097 11022 21105
Observed
Feb-22 @ 17:55 UTC
Wind
  • 110° at 6 KTS
Visibility
10 SM
Flight Rules
VFR
Cloud Levels
  • Clear skies
Temperature
-2°C / 28°F
Dewpoint
-10°C / 14°F
Humidity
55%
Altimeter
30.36" Hg
Pressure
1028.12 hPa
Previous

1 hour ago

KPEA 221735Z AUTO 10007KT 10SM CLR M03/M10 A3036 RMK AO2 T10261100
Observed
Feb-22 @ 17:35 UTC
Wind
  • 100° at 7 KTS
Visibility
10 SM
Flight Rules
VFR
Cloud Levels
  • Clear skies
Temperature
-3°C / 27°F
Dewpoint
-10°C / 14°F
Humidity
59%
Altimeter
30.36" Hg
Pressure
1028.12 hPa